Terminal Aerodrome Forecast
Issued by NWS Chicago, IL

Home | Current Version | Previous Version | Text Only | Print | Product List | Glossary On
Versions: 1 2 3 4 5 6 7 8 9 10 11 12 13 14 15 16 17 18 19 20 21 22 23 24 25 26 27 28 29 30 31
000
FTUS43 KLOT 311600 AAB
TAFRFD
TAF AMD
KRFD 311605Z 3116/0112 35022G34KT P6SM BKN035
     FM312200 35020G28KT P6SM FEW040
     FM010100 35015KT P6SM FEW040=

USA.gov is the U.S. government's official web portal to all federal, state and local government web resources and services.